Los Angeles, California
Traffic Map
Current Weather Conditions
Los Angeles, California
Few Clouds Haze
Few Clouds
64°
Feels Like: 64°
Wind Chill: 64° Ceiling: Unl
Heat Index: 64° Visibility: 3mi
Dew Point: 59° Wind: 0mph
Humidity: 84% Direction: ° ()
Pressure: 30.07in Gusts: 0mph
Raw Report DataKCQT 281547Z AUTO 00000KT 3SM HZ FEW007 18/15 A3007 RMK AO2 SLP181 T01780150
Traffic Incident Summary
Active as of:
Severity:
Category:
InformationThere was an issue retrieving the traffic information for this location. Please try a different location or try again shortly.
Advertisements
Track Severe Weather on mobile